sensor_id;sensor_type;location;lat;lon;timestamp;temperature;humidity
67559;DHT22;54388;53.536;49.300;2023-04-02T00:08:04;11.80;42.00
67559;DHT22;54388;53.536;49.300;2023-04-02T00:10:36;11.80;42.10
67559;DHT22;54388;53.536;49.300;2023-04-02T00:15:37;11.80;42.20
67559;DHT22;54388;53.536;49.300;2023-04-02T00:18:05;11.80;42.20
67559;DHT22;54388;53.536;49.300;2023-04-02T00:20:35;11.80;42.20
67559;DHT22;54388;53.536;49.300;2023-04-02T00:23:04;11.80;42.30
67559;DHT22;54388;53.536;49.300;2023-04-02T00:25:35;11.80;42.40
67559;DHT22;54388;53.536;49.300;2023-04-02T00:28:02;11.80;42.40
67559;DHT22;54388;53.536;49.300;2023-04-02T00:30:29;11.80;42.40
67559;DHT22;54388;53.536;49.300;2023-04-02T00:32:57;11.80;42.40
67559;DHT22;54388;53.536;49.300;2023-04-02T00:35:28;11.80;42.50
67559;DHT22;54388;53.536;49.300;2023-04-02T00:37:56;11.80;42.60
67559;DHT22;54388;53.536;49.300;2023-04-02T00:40:28;11.80;42.60
67559;DHT22;54388;53.536;49.300;2023-04-02T00:42:58;11.80;42.60
67559;DHT22;54388;53.536;49.300;2023-04-02T00:45:30;11.80;42.60
67559;DHT22;54388;53.536;49.300;2023-04-02T00:47:59;11.80;42.70
67559;DHT22;54388;53.536;49.300;2023-04-02T00:50:40;11.80;42.70
67559;DHT22;54388;53.536;49.300;2023-04-02T00:53:20;11.80;42.70
67559;DHT22;54388;53.536;49.300;2023-04-02T00:55:47;11.80;42.80
67559;DHT22;54388;53.536;49.300;2023-04-02T00:58:27;11.80;42.80
67559;DHT22;54388;53.536;49.300;2023-04-02T01:00:55;11.80;42.90
67559;DHT22;54388;53.536;49.300;2023-04-02T01:03:26;11.80;42.90
67559;DHT22;54388;53.536;49.300;2023-04-02T01:06:08;11.80;42.90
67559;DHT22;54388;53.536;49.300;2023-04-02T01:14:40;11.70;43.20
67559;DHT22;54388;53.536;49.300;2023-04-02T01:22:57;11.70;43.40
67559;DHT22;54388;53.536;49.300;2023-04-02T01:25:42;11.70;43.40
67559;DHT22;54388;53.536;49.300;2023-04-02T01:31:20;11.70;43.60
67559;DHT22;54388;53.536;49.300;2023-04-02T01:33:48;11.70;43.60
67559;DHT22;54388;53.536;49.300;2023-04-02T01:36:30;11.70;43.60
67559;DHT22;54388;53.536;49.300;2023-04-02T01:42:16;11.70;43.80
67559;DHT22;54388;53.536;49.300;2023-04-02T01:44:58;11.70;43.80
67559;DHT22;54388;53.536;49.300;2023-04-02T01:47:27;11.70;43.80
67559;DHT22;54388;53.536;49.300;2023-04-02T01:50:06;11.70;43.90
67559;DHT22;54388;53.536;49.300;2023-04-02T01:52:40;11.70;44.00
67559;DHT22;54388;53.536;49.300;2023-04-02T01:55:09;11.80;44.00
67559;DHT22;54388;53.536;49.300;2023-04-02T01:57:47;11.80;44.00
67559;DHT22;54388;53.536;49.300;2023-04-02T02:00:16;11.80;44.10
67559;DHT22;54388;53.536;49.300;2023-04-02T02:02:46;11.80;44.10
67559;DHT22;54388;53.536;49.300;2023-04-02T02:05:20;11.80;44.10
67559;DHT22;54388;53.536;49.300;2023-04-02T02:07:49;11.80;44.10
67559;DHT22;54388;53.536;49.300;2023-04-02T02:10:28;11.90;44.20
67559;DHT22;54388;53.536;49.300;2023-04-02T02:12:58;11.90;44.30
67559;DHT22;54388;53.536;49.300;2023-04-02T02:15:26;11.90;44.30
67559;DHT22;54388;53.536;49.300;2023-04-02T02:18:01;11.90;44.20
67559;DHT22;54388;53.536;49.300;2023-04-02T02:20:29;11.90;44.30
67559;DHT22;54388;53.536;49.300;2023-04-02T02:22:58;11.90;44.40
67559;DHT22;54388;53.536;49.300;2023-04-02T02:25:31;11.90;44.50
67559;DHT22;54388;53.536;49.300;2023-04-02T02:30:50;12.00;44.70
67559;DHT22;54388;53.536;49.300;2023-04-02T02:33:37;12.00;44.80
67559;DHT22;54388;53.536;49.300;2023-04-02T02:36:23;12.00;45.00
67559;DHT22;54388;53.536;49.300;2023-04-02T02:38:57;12.00;45.00
67559;DHT22;54388;53.536;49.300;2023-04-02T02:44:23;12.00;45.30
67559;DHT22;54388;53.536;49.300;2023-04-02T02:47:01;12.00;45.30
67559;DHT22;54388;53.536;49.300;2023-04-02T02:49:31;12.00;45.30
67559;DHT22;54388;53.536;49.300;2023-04-02T02:54:39;12.00;45.50
67559;DHT22;54388;53.536;49.300;2023-04-02T02:57:08;12.10;45.60
67559;DHT22;54388;53.536;49.300;2023-04-02T02:59:37;12.10;45.60
67559;DHT22;54388;53.536;49.300;2023-04-02T03:02:05;12.10;45.60
67559;DHT22;54388;53.536;49.300;2023-04-02T03:04:35;12.20;45.70
67559;DHT22;54388;53.536;49.300;2023-04-02T03:07:03;12.20;45.80
67559;DHT22;54388;53.536;49.300;2023-04-02T03:09:48;12.30;45.90
67559;DHT22;54388;53.536;49.300;2023-04-02T03:17:40;12.60;45.50
67559;DHT22;54388;53.536;49.300;2023-04-02T03:25:51;13.00;45.20
67559;DHT22;54388;53.536;49.300;2023-04-02T03:28:35;13.10;45.10
67559;DHT22;54388;53.536;49.300;2023-04-02T03:31:18;13.30;45.00
67559;DHT22;54388;53.536;49.300;2023-04-02T03:33:58;13.40;44.90
67559;DHT22;54388;53.536;49.300;2023-04-02T03:36:35;13.60;44.80
67559;DHT22;54388;53.536;49.300;2023-04-02T03:39:29;13.70;45.60
67559;DHT22;54388;53.536;49.300;2023-04-02T03:42:06;13.80;44.70
67559;DHT22;54388;53.536;49.300;2023-04-02T03:44:43;13.90;44.80
67559;DHT22;54388;53.536;49.300;2023-04-02T03:47:35;14.00;45.00
67559;DHT22;54388;53.536;49.300;2023-04-02T03:50:05;14.10;45.50
67559;DHT22;54388;53.536;49.300;2023-04-02T03:52:35;14.20;45.60
67559;DHT22;54388;53.536;49.300;2023-04-02T03:55:18;14.20;45.60
67559;DHT22;54388;53.536;49.300;2023-04-02T03:58:06;14.30;45.90
67559;DHT22;54388;53.536;49.300;2023-04-02T04:03:49;14.60;46.00
67559;DHT22;54388;53.536;49.300;2023-04-02T04:06:27;14.60;46.00
67559;DHT22;54388;53.536;49.300;2023-04-02T04:09:10;14.70;46.10
67559;DHT22;54388;53.536;49.300;2023-04-02T04:12:51;14.70;46.30
67559;DHT22;54388;53.536;49.300;2023-04-02T04:14:57;14.90;46.40
67559;DHT22;54388;53.536;49.300;2023-04-02T04:20:35;15.10;46.30
67559;DHT22;54388;53.536;49.300;2023-04-02T04:23:26;15.20;46.30
67559;DHT22;54388;53.536;49.300;2023-04-02T04:27:04;15.20;46.50
67559;DHT22;54388;53.536;49.300;2023-04-02T04:31:50;15.30;46.70
67559;DHT22;54388;53.536;49.300;2023-04-02T04:34:49;15.30;47.00
67559;DHT22;54388;53.536;49.300;2023-04-02T04:37:23;15.30;47.40
67559;DHT22;54388;53.536;49.300;2023-04-02T04:40:09;15.40;47.30
67559;DHT22;54388;53.536;49.300;2023-04-02T04:42:40;15.40;47.30
67559;DHT22;54388;53.536;49.300;2023-04-02T04:45:37;15.50;47.40
67559;DHT22;54388;53.536;49.300;2023-04-02T04:48:19;15.60;47.10
67559;DHT22;54388;53.536;49.300;2023-04-02T04:50:55;15.70;47.00
67559;DHT22;54388;53.536;49.300;2023-04-02T04:53:25;15.80;46.70
67559;DHT22;54388;53.536;49.300;2023-04-02T04:55:59;15.90;46.40
67559;DHT22;54388;53.536;49.300;2023-04-02T05:01:23;16.00;45.90
67559;DHT22;54388;53.536;49.300;2023-04-02T05:12:55;16.40;44.80
67559;DHT22;54388;53.536;49.300;2023-04-02T05:24:12;17.00;44.60
67559;DHT22;54388;53.536;49.300;2023-04-02T05:26:45;17.20;44.40
67559;DHT22;54388;53.536;49.300;2023-04-02T05:29:30;17.30;44.10
67559;DHT22;54388;53.536;49.300;2023-04-02T05:32:18;17.50;43.80
67559;DHT22;54388;53.536;49.300;2023-04-02T05:34:52;17.60;43.30
67559;DHT22;54388;53.536;49.300;2023-04-02T05:37:21;17.80;42.90
67559;DHT22;54388;53.536;49.300;2023-04-02T05:39:53;18.00;42.70
67559;DHT22;54388;53.536;49.300;2023-04-02T05:42:29;18.10;42.30
67559;DHT22;54388;53.536;49.300;2023-04-02T05:45:45;18.30;41.70
67559;DHT22;54388;53.536;49.300;2023-04-02T05:47:54;18.50;41.30
67559;DHT22;54388;53.536;49.300;2023-04-02T05:50:35;18.70;41.00
67559;DHT22;54388;53.536;49.300;2023-04-02T05:58:30;19.30;38.60
67559;DHT22;54388;53.536;49.300;2023-04-02T06:04:12;19.60;37.40
67559;DHT22;54388;53.536;49.300;2023-04-02T06:12:26;20.10;36.80
67559;DHT22;54388;53.536;49.300;2023-04-02T06:14:45;20.20;36.60
67559;DHT22;54388;53.536;49.300;2023-04-02T06:17:18;20.30;35.90
67559;DHT22;54388;53.536;49.300;2023-04-02T06:19:46;20.40;34.80
67559;DHT22;54388;53.536;49.300;2023-04-02T06:24:54;20.60;34.30
67559;DHT22;54388;53.536;49.300;2023-04-02T06:27:23;20.70;33.80
67559;DHT22;54388;53.536;49.300;2023-04-02T06:29:53;20.90;32.90
67559;DHT22;54388;53.536;49.300;2023-04-02T06:32:22;21.10;32.10
67559;DHT22;54388;53.536;49.300;2023-04-02T06:34:52;21.40;31.80
67559;DHT22;54388;53.536;49.300;2023-04-02T06:37:37;21.70;31.10
67559;DHT22;54388;53.536;49.300;2023-04-02T06:40:20;22.20;30.20
67559;DHT22;54388;53.536;49.300;2023-04-02T06:42:50;22.50;30.00
67559;DHT22;54388;53.536;49.300;2023-04-02T06:45:37;22.80;31.00
67559;DHT22;54388;53.536;49.300;2023-04-02T06:48:14;23.00;29.90
67559;DHT22;54388;53.536;49.300;2023-04-02T06:51:02;23.30;29.50
67559;DHT22;54388;53.536;49.300;2023-04-02T06:53:39;23.50;29.10
67559;DHT22;54388;53.536;49.300;2023-04-02T06:58:41;24.20;28.40
67559;DHT22;54388;53.536;49.300;2023-04-02T07:01:14;24.50;28.10
67559;DHT22;54388;53.536;49.300;2023-04-02T07:03:42;24.80;27.60
67559;DHT22;54388;53.536;49.300;2023-04-02T07:06:17;25.20;27.30
67559;DHT22;54388;53.536;49.300;2023-04-02T07:08:44;25.50;26.80
67559;DHT22;54388;53.536;49.300;2023-04-02T07:11:17;25.60;26.70
67559;DHT22;54388;53.536;49.300;2023-04-02T07:13:44;25.80;26.40
67559;DHT22;54388;53.536;49.300;2023-04-02T07:16:14;25.90;26.30
67559;DHT22;54388;53.536;49.300;2023-04-02T07:18:41;26.00;26.30
67559;DHT22;54388;53.536;49.300;2023-04-02T07:21:08;26.20;26.10
67559;DHT22;54388;53.536;49.300;2023-04-02T07:23:34;26.40;25.90
67559;DHT22;54388;53.536;49.300;2023-04-02T07:26:01;26.80;25.60
67559;DHT22;54388;53.536;49.300;2023-04-02T07:28:28;27.00;25.40
67559;DHT22;54388;53.536;49.300;2023-04-02T07:30:55;27.10;25.20
67559;DHT22;54388;53.536;49.300;2023-04-02T07:33:24;27.20;25.20
67559;DHT22;54388;53.536;49.300;2023-04-02T07:35:52;27.40;25.20
67559;DHT22;54388;53.536;49.300;2023-04-02T07:38:19;27.50;25.10
67559;DHT22;54388;53.536;49.300;2023-04-02T07:40:46;27.60;25.10
67559;DHT22;54388;53.536;49.300;2023-04-02T07:43:13;27.70;25.00
67559;DHT22;54388;53.536;49.300;2023-04-02T07:45:39;27.80;24.80
67559;DHT22;54388;53.536;49.300;2023-04-02T07:48:08;27.80;24.70
67559;DHT22;54388;53.536;49.300;2023-04-02T07:50:36;27.90;24.60
67559;DHT22;54388;53.536;49.300;2023-04-02T07:53:03;28.00;24.50
67559;DHT22;54388;53.536;49.300;2023-04-02T07:55:29;28.20;24.40
67559;DHT22;54388;53.536;49.300;2023-04-02T07:57:58;28.30;24.30
67559;DHT22;54388;53.536;49.300;2023-04-02T08:00:26;28.30;24.10
67559;DHT22;54388;53.536;49.300;2023-04-02T08:02:53;28.40;23.80
67559;DHT22;54388;53.536;49.300;2023-04-02T08:05:20;28.20;23.90
67559;DHT22;54388;53.536;49.300;2023-04-02T08:07:54;28.20;23.90
67559;DHT22;54388;53.536;49.300;2023-04-02T08:10:22;28.20;23.80
67559;DHT22;54388;53.536;49.300;2023-04-02T08:12:49;28.10;23.70
67559;DHT22;54388;53.536;49.300;2023-04-02T08:15:16;28.10;23.70
67559;DHT22;54388;53.536;49.300;2023-04-02T08:17:44;28.00;23.50
67559;DHT22;54388;53.536;49.300;2023-04-02T08:20:19;28.00;23.40
67559;DHT22;54388;53.536;49.300;2023-04-02T08:22:47;28.00;23.40
67559;DHT22;54388;53.536;49.300;2023-04-02T08:25:14;27.90;23.20
67559;DHT22;54388;53.536;49.300;2023-04-02T08:27:41;27.80;23.20
67559;DHT22;54388;53.536;49.300;2023-04-02T08:30:10;27.80;23.20
67559;DHT22;54388;53.536;49.300;2023-04-02T08:32:38;27.80;23.20
67559;DHT22;54388;53.536;49.300;2023-04-02T08:35:07;27.80;23.20
67559;DHT22;54388;53.536;49.300;2023-04-02T08:37:35;27.80;23.20
67559;DHT22;54388;53.536;49.300;2023-04-02T08:40:02;27.70;23.00
67559;DHT22;54388;53.536;49.300;2023-04-02T08:42:40;27.70;23.00
67559;DHT22;54388;53.536;49.300;2023-04-02T08:47:49;27.60;23.10
67559;DHT22;54388;53.536;49.300;2023-04-02T08:50:42;27.70;23.10
67559;DHT22;54388;53.536;49.300;2023-04-02T08:53:23;27.80;23.10
67559;DHT22;54388;53.536;49.300;2023-04-02T08:56:02;27.90;22.90
67559;DHT22;54388;53.536;49.300;2023-04-02T08:58:40;27.90;22.70
67559;DHT22;54388;53.536;49.300;2023-04-02T09:04:03;28.00;22.60
67559;DHT22;54388;53.536;49.300;2023-04-02T09:06:32;28.20;22.50
67559;DHT22;54388;53.536;49.300;2023-04-02T09:08:59;28.30;22.50
67559;DHT22;54388;53.536;49.300;2023-04-02T09:11:38;28.30;22.40
67559;DHT22;54388;53.536;49.300;2023-04-02T09:14:17;28.40;22.30
67559;DHT22;54388;53.536;49.300;2023-04-02T09:16:50;28.40;22.30
67559;DHT22;54388;53.536;49.300;2023-04-02T09:25:03;28.70;22.10
67559;DHT22;54388;53.536;49.300;2023-04-02T09:27:33;28.90;22.10
67559;DHT22;54388;53.536;49.300;2023-04-02T09:32:51;29.00;21.90
67559;DHT22;54388;53.536;49.300;2023-04-02T09:35:26;29.00;21.70
67559;DHT22;54388;53.536;49.300;2023-04-02T09:38:19;29.10;21.80
67559;DHT22;54388;53.536;49.300;2023-04-02T09:41:02;29.10;21.40
67559;DHT22;54388;53.536;49.300;2023-04-02T09:43:34;29.10;21.40
67559;DHT22;54388;53.536;49.300;2023-04-02T09:48:57;29.20;21.30
67559;DHT22;54388;53.536;49.300;2023-04-02T09:51:28;29.20;21.30
67559;DHT22;54388;53.536;49.300;2023-04-02T09:56:32;29.20;21.20
67559;DHT22;54388;53.536;49.300;2023-04-02T10:01:31;29.30;21.10
67559;DHT22;54388;53.536;49.300;2023-04-02T10:03:59;29.50;21.10
67559;DHT22;54388;53.536;49.300;2023-04-02T10:06:29;29.40;20.90
67559;DHT22;54388;53.536;49.300;2023-04-02T10:08:56;29.50;21.60
67559;DHT22;54388;53.536;49.300;2023-04-02T10:11:30;29.60;20.60
67559;DHT22;54388;53.536;49.300;2023-04-02T10:14:03;29.80;20.40
67559;DHT22;54388;53.536;49.300;2023-04-02T10:16:31;29.90;20.50
67559;DHT22;54388;53.536;49.300;2023-04-02T10:19:13;30.00;20.40
67559;DHT22;54388;53.536;49.300;2023-04-02T10:21:43;30.00;20.20
67559;DHT22;54388;53.536;49.300;2023-04-02T10:24:15;30.20;20.30
67559;DHT22;54388;53.536;49.300;2023-04-02T10:26:56;30.10;20.30
67559;DHT22;54388;53.536;49.300;2023-04-02T10:32:29;30.20;20.20
67559;DHT22;54388;53.536;49.300;2023-04-02T10:41:20;30.20;20.00
67559;DHT22;54388;53.536;49.300;2023-04-02T10:44:01;30.10;19.80
67559;DHT22;54388;53.536;49.300;2023-04-02T10:49:06;30.10;19.80
67559;DHT22;54388;53.536;49.300;2023-04-02T10:51:54;30.10;19.80
67559;DHT22;54388;53.536;49.300;2023-04-02T10:57:26;30.40;19.70
67559;DHT22;54388;53.536;49.300;2023-04-02T11:03:27;30.70;19.40
67559;DHT22;54388;53.536;49.300;2023-04-02T11:05:57;30.70;19.50
67559;DHT22;54388;53.536;49.300;2023-04-02T11:11:25;30.60;19.70
67559;DHT22;54388;53.536;49.300;2023-04-02T11:13:57;30.50;19.70
67559;DHT22;54388;53.536;49.300;2023-04-02T11:16:26;30.50;19.50
67559;DHT22;54388;53.536;49.300;2023-04-02T11:21:51;30.50;19.70
67559;DHT22;54388;53.536;49.300;2023-04-02T11:30:21;30.40;19.50
67559;DHT22;54388;53.536;49.300;2023-04-02T11:50:35;30.20;19.30
67559;DHT22;54388;53.536;49.300;2023-04-02T11:55:45;30.10;19.30
67559;DHT22;54388;53.536;49.300;2023-04-02T12:01:22;29.90;19.20
67559;DHT22;54388;53.536;49.300;2023-04-02T12:09:26;29.60;20.20
67559;DHT22;54388;53.536;49.300;2023-04-02T12:12:14;29.60;19.40
67559;DHT22;54388;53.536;49.300;2023-04-02T12:14:47;29.70;19.40
67559;DHT22;54388;53.536;49.300;2023-04-02T12:17:28;29.80;19.20
67559;DHT22;54388;53.536;49.300;2023-04-02T12:22:38;30.10;19.00
67559;DHT22;54388;53.536;49.300;2023-04-02T12:27:44;30.30;19.60
67559;DHT22;54388;53.536;49.300;2023-04-02T12:32:44;30.60;18.80
67559;DHT22;54388;53.536;49.300;2023-04-02T12:37:53;30.80;18.90
67559;DHT22;54388;53.536;49.300;2023-04-02T12:40:19;30.90;18.80
67559;DHT22;54388;53.536;49.300;2023-04-02T12:42:46;31.10;18.70
67559;DHT22;54388;53.536;49.300;2023-04-02T12:45:29;31.00;18.40
67559;DHT22;54388;53.536;49.300;2023-04-02T12:48:00;31.00;18.20
67559;DHT22;54388;53.536;49.300;2023-04-02T12:50:28;31.10;18.10
67559;DHT22;54388;53.536;49.300;2023-04-02T12:52:55;31.10;18.00
67559;DHT22;54388;53.536;49.300;2023-04-02T12:55:25;31.10;17.80
67559;DHT22;54388;53.536;49.300;2023-04-02T12:57:57;31.10;17.70
67559;DHT22;54388;53.536;49.300;2023-04-02T13:03:13;31.10;17.50
67559;DHT22;54388;53.536;49.300;2023-04-02T13:05:53;31.00;17.50
67559;DHT22;54388;53.536;49.300;2023-04-02T13:08:29;30.90;17.70
67559;DHT22;54388;53.536;49.300;2023-04-02T13:10:59;30.80;17.90
67559;DHT22;54388;53.536;49.300;2023-04-02T13:13:31;30.70;18.20
67559;DHT22;54388;53.536;49.300;2023-04-02T13:16:03;30.50;18.30
67559;DHT22;54388;53.536;49.300;2023-04-02T13:18:32;30.40;18.30
67559;DHT22;54388;53.536;49.300;2023-04-02T13:21:01;30.30;18.20
67559;DHT22;54388;53.536;49.300;2023-04-02T13:23:31;30.20;18.30
67559;DHT22;54388;53.536;49.300;2023-04-02T13:26:01;30.00;18.30
67559;DHT22;54388;53.536;49.300;2023-04-02T13:28:29;30.00;18.40
67559;DHT22;54388;53.536;49.300;2023-04-02T13:30:56;29.90;19.60
67559;DHT22;54388;53.536;49.300;2023-04-02T13:33:23;29.90;19.10
67559;DHT22;54388;53.536;49.300;2023-04-02T13:35:50;29.90;19.30
67559;DHT22;54388;53.536;49.300;2023-04-02T13:38:16;29.90;19.50
67559;DHT22;54388;53.536;49.300;2023-04-02T13:40:43;29.90;19.60
67559;DHT22;54388;53.536;49.300;2023-04-02T13:43:16;29.80;19.50
67559;DHT22;54388;53.536;49.300;2023-04-02T13:45:47;29.70;19.50
67559;DHT22;54388;53.536;49.300;2023-04-02T13:48:15;29.50;19.40
67559;DHT22;54388;53.536;49.300;2023-04-02T13:50:43;29.50;19.60
67559;DHT22;54388;53.536;49.300;2023-04-02T13:53:20;29.40;19.70
67559;DHT22;54388;53.536;49.300;2023-04-02T13:55:47;29.30;19.80
67559;DHT22;54388;53.536;49.300;2023-04-02T13:58:14;29.30;19.80
67559;DHT22;54388;53.536;49.300;2023-04-02T14:00:41;29.20;19.80
67559;DHT22;54388;53.536;49.300;2023-04-02T14:03:18;29.20;19.90
67559;DHT22;54388;53.536;49.300;2023-04-02T14:06:28;29.10;20.00
67559;DHT22;54388;53.536;49.300;2023-04-02T14:09:29;29.10;20.20
67559;DHT22;54388;53.536;49.300;2023-04-02T14:12:07;29.00;21.10
67559;DHT22;54388;53.536;49.300;2023-04-02T14:15:09;28.90;20.50
67559;DHT22;54388;53.536;49.300;2023-04-02T14:28:50;28.40;21.00
67559;DHT22;54388;53.536;49.300;2023-04-02T14:34:35;28.20;21.20
67559;DHT22;54388;53.536;49.300;2023-04-02T14:42:59;28.10;21.20
67559;DHT22;54388;53.536;49.300;2023-04-02T14:48:05;27.80;21.40
67559;DHT22;54388;53.536;49.300;2023-04-02T14:50:39;27.70;21.60
67559;DHT22;54388;53.536;49.300;2023-04-02T14:56:04;27.60;21.80
67559;DHT22;54388;53.536;49.300;2023-04-02T14:58:39;27.50;22.00
67559;DHT22;54388;53.536;49.300;2023-04-02T15:01:24;27.30;22.30
67559;DHT22;54388;53.536;49.300;2023-04-02T15:04:02;27.20;22.50
67559;DHT22;54388;53.536;49.300;2023-04-02T15:06:34;27.00;22.60
67559;DHT22;54388;53.536;49.300;2023-04-02T15:11:53;26.70;23.10
67559;DHT22;54388;53.536;49.300;2023-04-02T15:14:29;26.40;23.40
67559;DHT22;54388;53.536;49.300;2023-04-02T15:16:58;26.00;23.70
67559;DHT22;54388;53.536;49.300;2023-04-02T15:19:24;25.70;24.00
67559;DHT22;54388;53.536;49.300;2023-04-02T15:25:49;25.00;24.70
67559;DHT22;54388;53.536;49.300;2023-04-02T15:28:27;24.60;25.10
67559;DHT22;54388;53.536;49.300;2023-04-02T15:30:59;24.20;25.50
67559;DHT22;54388;53.536;49.300;2023-04-02T15:36:17;23.60;26.30
67559;DHT22;54388;53.536;49.300;2023-04-02T15:39:28;23.20;26.60
67559;DHT22;54388;53.536;49.300;2023-04-02T15:44:55;22.60;27.40
67559;DHT22;54388;53.536;49.300;2023-04-02T15:50:45;22.00;28.10
67559;DHT22;54388;53.536;49.300;2023-04-02T15:53:56;21.70;28.50
67559;DHT22;54388;53.536;49.300;2023-04-02T16:10:41;20.10;30.40
67559;DHT22;54388;53.536;49.300;2023-04-02T16:16:26;19.70;31.30
67559;DHT22;54388;53.536;49.300;2023-04-02T16:22:30;19.30;31.90
67559;DHT22;54388;53.536;49.300;2023-04-02T16:24:31;19.10;32.40
67559;DHT22;54388;53.536;49.300;2023-04-02T16:27:29;19.00;32.40
67559;DHT22;54388;53.536;49.300;2023-04-02T16:32:48;18.70;32.90
67559;DHT22;54388;53.536;49.300;2023-04-02T16:35:25;18.50;33.20
67559;DHT22;54388;53.536;49.300;2023-04-02T16:41:26;18.20;33.40
67559;DHT22;54388;53.536;49.300;2023-04-02T16:55:40;17.50;34.10
67559;DHT22;54388;53.536;49.300;2023-04-02T17:04:07;17.20;34.70
67559;DHT22;54388;53.536;49.300;2023-04-02T17:06:43;17.10;35.00
67559;DHT22;54388;53.536;49.300;2023-04-02T17:09:41;17.00;35.20
67559;DHT22;54388;53.536;49.300;2023-04-02T17:12:44;16.80;35.60
67559;DHT22;54388;53.536;49.300;2023-04-02T17:18:42;16.60;36.10
67559;DHT22;54388;53.536;49.300;2023-04-02T17:21:13;16.50;36.30
67559;DHT22;54388;53.536;49.300;2023-04-02T17:23:52;16.40;36.60
67559;DHT22;54388;53.536;49.300;2023-04-02T17:26:21;16.30;37.00
67559;DHT22;54388;53.536;49.300;2023-04-02T17:28:50;16.20;37.10
67559;DHT22;54388;53.536;49.300;2023-04-02T17:31:42;16.10;37.40
67559;DHT22;54388;53.536;49.300;2023-04-02T17:34:15;16.00;37.70
67559;DHT22;54388;53.536;49.300;2023-04-02T17:40:00;15.90;38.30
67559;DHT22;54388;53.536;49.300;2023-04-02T17:45:30;15.70;38.50
67559;DHT22;54388;53.536;49.300;2023-04-02T17:48:08;15.60;38.60
67559;DHT22;54388;53.536;49.300;2023-04-02T17:50:49;15.60;38.80
67559;DHT22;54388;53.536;49.300;2023-04-02T17:53:46;15.50;38.90
67559;DHT22;54388;53.536;49.300;2023-04-02T17:56:33;15.40;38.90
67559;DHT22;54388;53.536;49.300;2023-04-02T18:10:37;15.00;39.90
67559;DHT22;54388;53.536;49.300;2023-04-02T18:16:11;14.80;40.30
67559;DHT22;54388;53.536;49.300;2023-04-02T18:21:17;14.70;40.30
67559;DHT22;54388;53.536;49.300;2023-04-02T18:26:59;14.50;41.00
67559;DHT22;54388;53.536;49.300;2023-04-02T18:29:41;14.40;41.40
67559;DHT22;54388;53.536;49.300;2023-04-02T18:48:58;13.70;43.70
67559;DHT22;54388;53.536;49.300;2023-04-02T18:51:28;13.60;43.40
67559;DHT22;54388;53.536;49.300;2023-04-02T18:54:38;13.50;43.60
67559;DHT22;54388;53.536;49.300;2023-04-02T18:57:12;13.40;44.10
67559;DHT22;54388;53.536;49.300;2023-04-02T19:03:13;13.20;44.40
67559;DHT22;54388;53.536;49.300;2023-04-02T19:05:40;13.10;44.40
67559;DHT22;54388;53.536;49.300;2023-04-02T19:10:53;12.90;44.90
67559;DHT22;54388;53.536;49.300;2023-04-02T19:13:23;12.90;45.10
67559;DHT22;54388;53.536;49.300;2023-04-02T19:16:12;12.80;45.20
67559;DHT22;54388;53.536;49.300;2023-04-02T19:27:06;12.50;45.80
67559;DHT22;54388;53.536;49.300;2023-04-02T19:37:48;12.10;46.40
67559;DHT22;54388;53.536;49.300;2023-04-02T19:40:31;12.00;46.70
67559;DHT22;54388;53.536;49.300;2023-04-02T19:43:06;12.00;46.70
67559;DHT22;54388;53.536;49.300;2023-04-02T19:45:45;11.90;46.80
67559;DHT22;54388;53.536;49.300;2023-04-02T19:48:16;11.80;47.10
67559;DHT22;54388;53.536;49.300;2023-04-02T19:50:44;11.80;47.30
67559;DHT22;54388;53.536;49.300;2023-04-02T19:53:12;11.70;47.50
67559;DHT22;54388;53.536;49.300;2023-04-02T19:55:39;11.60;47.70
67559;DHT22;54388;53.536;49.300;2023-04-02T19:58:08;11.60;47.90
67559;DHT22;54388;53.536;49.300;2023-04-02T20:00:36;11.50;48.00
67559;DHT22;54388;53.536;49.300;2023-04-02T20:03:03;11.50;48.10
67559;DHT22;54388;53.536;49.300;2023-04-02T20:05:29;11.40;48.20
67559;DHT22;54388;53.536;49.300;2023-04-02T20:07:56;11.40;48.40
67559;DHT22;54388;53.536;49.300;2023-04-02T20:10:22;11.30;48.50
67559;DHT22;54388;53.536;49.300;2023-04-02T20:12:49;11.30;48.80
67559;DHT22;54388;53.536;49.300;2023-04-02T20:15:15;11.20;48.90
67559;DHT22;54388;53.536;49.300;2023-04-02T20:17:42;11.10;49.10
67559;DHT22;54388;53.536;49.300;2023-04-02T20:20:08;11.10;49.40
67559;DHT22;54388;53.536;49.300;2023-04-02T20:22:35;11.00;49.30
67559;DHT22;54388;53.536;49.300;2023-04-02T20:25:02;11.00;49.50
67559;DHT22;54388;53.536;49.300;2023-04-02T20:27:29;10.90;49.70
67559;DHT22;54388;53.536;49.300;2023-04-02T20:29:56;10.90;50.00
67559;DHT22;54388;53.536;49.300;2023-04-02T20:32:22;10.80;50.00
67559;DHT22;54388;53.536;49.300;2023-04-02T20:34:52;10.80;50.20
67559;DHT22;54388;53.536;49.300;2023-04-02T20:37:19;10.70;50.20
67559;DHT22;54388;53.536;49.300;2023-04-02T20:39:46;10.70;50.20
67559;DHT22;54388;53.536;49.300;2023-04-02T20:42:13;10.60;50.20
67559;DHT22;54388;53.536;49.300;2023-04-02T20:44:39;10.60;50.30
67559;DHT22;54388;53.536;49.300;2023-04-02T20:47:07;10.50;50.30
67559;DHT22;54388;53.536;49.300;2023-04-02T20:49:34;10.50;50.40
67559;DHT22;54388;53.536;49.300;2023-04-02T20:52:01;10.40;50.40
67559;DHT22;54388;53.536;49.300;2023-04-02T20:54:27;10.40;50.50
67559;DHT22;54388;53.536;49.300;2023-04-02T20:56:54;10.30;50.60
67559;DHT22;54388;53.536;49.300;2023-04-02T20:59:20;10.30;50.70
67559;DHT22;54388;53.536;49.300;2023-04-02T21:01:47;10.20;50.90
67559;DHT22;54388;53.536;49.300;2023-04-02T21:04:13;10.20;51.10
67559;DHT22;54388;53.536;49.300;2023-04-02T21:06:40;10.10;51.20
67559;DHT22;54388;53.536;49.300;2023-04-02T21:09:15;10.00;51.30
67559;DHT22;54388;53.536;49.300;2023-04-02T21:11:42;10.00;51.60
67559;DHT22;54388;53.536;49.300;2023-04-02T21:14:10;9.90;51.60
67559;DHT22;54388;53.536;49.300;2023-04-02T21:16:36;9.90;51.80
67559;DHT22;54388;53.536;49.300;2023-04-02T21:19:05;9.80;51.90
67559;DHT22;54388;53.536;49.300;2023-04-02T21:21:33;9.80;52.10
67559;DHT22;54388;53.536;49.300;2023-04-02T21:24:02;9.80;52.20
67559;DHT22;54388;53.536;49.300;2023-04-02T21:26:31;9.70;52.40
67559;DHT22;54388;53.536;49.300;2023-04-02T21:28:58;9.60;52.60
67559;DHT22;54388;53.536;49.300;2023-04-02T21:31:27;9.60;52.70
67559;DHT22;54388;53.536;49.300;2023-04-02T21:33:56;9.60;52.90
67559;DHT22;54388;53.536;49.300;2023-04-02T21:36:28;9.50;52.90
67559;DHT22;54388;53.536;49.300;2023-04-02T21:39:00;9.50;53.10
67559;DHT22;54388;53.536;49.300;2023-04-02T21:41:32;9.40;53.20